createdAt,value
2018-04-02T00:00:32.472Z,2.40
2018-04-02T00:01:32.439Z,1.90
2018-04-02T00:02:32.562Z,2.20
2018-04-02T00:03:32.418Z,2.40
2018-04-02T00:04:32.399Z,3.10
2018-04-02T00:05:32.351Z,2.80
2018-04-02T00:06:32.304Z,2.60
2018-04-02T00:07:32.282Z,2.30
2018-04-02T00:08:32.396Z,2.40
2018-04-02T00:09:32.800Z,1.70
2018-04-02T00:10:32.281Z,2.60
2018-04-02T00:11:32.209Z,2.00
2018-04-02T00:12:32.191Z,2.40
2018-04-02T00:13:32.234Z,2.90
2018-04-02T00:14:32.126Z,2.40
2018-04-02T00:15:32.139Z,1.50
2018-04-02T00:16:32.112Z,2.30
2018-04-02T00:17:32.123Z,2.50
2018-04-02T00:18:32.137Z,2.60
2018-04-02T00:19:32.015Z,1.70
2018-04-02T00:20:31.992Z,2.40
2018-04-02T00:21:31.953Z,2.80
2018-04-02T00:22:31.963Z,2.20
2018-04-02T00:23:32.480Z,1.80
2018-04-02T00:24:31.921Z,2.10
2018-04-02T00:25:31.854Z,2.10
2018-04-02T00:26:31.834Z,1.80
2018-04-02T00:27:31.824Z,2.00
2018-04-02T00:28:31.870Z,2.00
2018-04-02T00:29:31.764Z,2.50
2018-04-02T00:30:31.776Z,1.50
2018-04-02T00:31:31.713Z,1.80
2018-04-02T00:32:31.687Z,2.20
2018-04-02T00:33:32.339Z,2.30
2018-04-02T00:34:31.764Z,2.30
2018-04-02T00:35:31.600Z,2.00
2018-04-02T00:36:31.587Z,2.90
2018-04-02T00:37:31.561Z,2.10
2018-04-02T00:38:32.094Z,2.10
2018-04-02T00:39:31.693Z,2.40
2018-04-02T00:40:32.060Z,2.60
2018-04-02T00:41:31.507Z,2.00
2018-04-02T00:42:31.427Z,1.80
2018-04-02T00:43:31.422Z,2.20
2018-04-02T00:44:31.449Z,2.90
2018-04-02T00:45:32.042Z,2.60
2018-04-02T00:46:31.345Z,2.00
2018-04-02T00:47:31.319Z,2.70
2018-04-02T00:48:31.339Z,2.30
2018-04-02T00:49:31.282Z,1.60
2018-04-02T00:50:31.279Z,1.70
2018-04-02T00:51:31.350Z,2.30
2018-04-02T00:52:31.702Z,2.60
2018-04-02T00:53:31.206Z,2.00
2018-04-02T00:54:31.206Z,2.70
2018-04-02T00:55:31.187Z,2.10
2018-04-02T00:56:31.206Z,2.00
2018-04-02T00:57:31.630Z,1.90
2018-04-02T00:58:31.107Z,1.80
2018-04-02T00:59:31.025Z,1.70
2018-04-02T01:00:31.525Z,2.30
2018-04-02T01:01:31.085Z,2.60
2018-04-02T01:02:31.039Z,2.30
2018-04-02T01:03:31.500Z,2.50
2018-04-02T01:04:31.502Z,1.80
2018-04-02T01:05:30.905Z,2.50
2018-04-02T01:06:30.945Z,2.60
2018-04-02T01:07:31.067Z,2.30
2018-04-02T01:08:30.821Z,2.30
2018-04-02T01:09:30.787Z,1.90
2018-04-02T01:10:30.762Z,1.50
2018-04-02T01:11:31.348Z,1.70
2018-04-02T01:12:30.772Z,1.60
2018-04-02T01:13:30.684Z,2.10
2018-04-02T01:14:30.631Z,1.70
2018-04-02T01:15:30.640Z,1.90
2018-04-02T01:16:31.148Z,2.10
2018-04-02T01:17:30.689Z,1.80
2018-04-02T01:18:30.540Z,2.00
2018-04-02T01:19:30.539Z,1.70
2018-04-02T01:20:31.515Z,1.40
2018-04-02T01:21:31.046Z,3.20
2018-04-02T01:22:30.472Z,2.00
2018-04-02T01:23:30.546Z,2.20
2018-04-02T01:24:30.444Z,1.60
2018-04-02T01:25:30.363Z,1.50
2018-04-02T01:26:30.945Z,1.70
2018-04-02T01:27:30.315Z,2.80
2018-04-02T01:28:30.307Z,2.00
2018-04-02T01:29:30.389Z,1.60
2018-04-02T01:30:30.293Z,1.80
2018-04-02T01:31:30.260Z,1.90
2018-04-02T01:32:30.725Z,1.70
2018-04-02T01:33:30.206Z,1.30
2018-04-02T01:34:30.364Z,2.20
2018-04-02T01:35:30.110Z,1.90
2018-04-02T01:36:30.101Z,2.00
2018-04-02T01:37:30.097Z,1.90
2018-04-02T01:38:30.672Z,1.60
2018-04-02T01:39:30.147Z,2.20
2018-04-02T01:40:30.007Z,2.30
2018-04-02T01:41:30.017Z,1.90
2018-04-02T01:42:30.165Z,2.10
2018-04-02T01:43:30.485Z,1.80
2018-04-02T01:44:30.102Z,1.60
2018-04-02T01:45:29.882Z,2.40
2018-04-02T01:46:29.860Z,1.90
2018-04-02T01:47:29.831Z,1.50
2018-04-02T01:48:29.802Z,1.30
2018-04-02T01:49:29.909Z,1.90
2018-04-02T01:50:29.935Z,2.40
2018-04-02T01:51:29.750Z,1.60
2018-04-02T01:52:30.238Z,1.40
2018-04-02T01:53:30.324Z,1.80
2018-04-02T01:54:29.641Z,1.70
2018-04-02T01:55:29.733Z,1.90
2018-04-02T01:56:29.637Z,1.80
2018-04-02T01:57:29.570Z,1.50
2018-04-02T01:58:29.560Z,1.80
2018-04-02T01:59:29.617Z,2.90
2018-04-02T02:00:30.065Z,2.00
2018-04-02T02:01:30.312Z,1.40
2018-04-02T02:02:30.058Z,1.70
2018-04-02T02:03:29.932Z,2.10
2018-04-02T02:04:29.406Z,1.70
2018-04-02T02:05:29.567Z,1.50
2018-04-02T02:06:29.347Z,1.90
2018-04-02T02:07:29.423Z,2.50
2018-04-02T02:08:29.510Z,2.20
2018-04-02T02:09:29.885Z,2.10
2018-04-02T02:10:29.239Z,1.50
2018-04-02T02:11:29.238Z,1.60
2018-04-02T02:12:29.353Z,1.60
2018-04-02T02:13:29.234Z,2.30
2018-04-02T02:14:29.144Z,1.40
2018-04-02T02:15:29.092Z,1.60
2018-04-02T02:16:29.071Z,1.90
2018-04-02T02:17:29.307Z,1.50
2018-04-02T02:18:29.076Z,1.50
2018-04-02T02:19:29.027Z,1.80
2018-04-02T02:20:29.067Z,2.10
2018-04-02T02:21:29.028Z,2.40
2018-04-02T02:22:29.498Z,2.30
2018-04-02T02:23:28.991Z,1.50
2018-04-02T02:24:28.883Z,2.00
2018-04-02T02:25:29.346Z,1.40
2018-04-02T02:26:28.866Z,1.90
2018-04-02T02:27:28.808Z,2.00
2018-04-02T02:28:28.872Z,1.90
2018-04-02T02:29:28.795Z,2.00
2018-04-02T02:30:28.784Z,1.80
2018-04-02T02:31:29.269Z,2.20
2018-04-02T02:32:28.692Z,1.70
2018-04-02T02:33:28.789Z,1.60
2018-04-02T02:34:28.660Z,2.30
2018-04-02T02:35:28.624Z,1.60
2018-04-02T02:36:28.563Z,1.60
2018-04-02T02:37:28.605Z,2.20
2018-04-02T02:38:28.653Z,1.80
2018-04-02T02:39:28.516Z,2.50
2018-04-02T02:40:28.466Z,2.00
2018-04-02T02:41:28.420Z,2.30
2018-04-02T02:42:28.430Z,2.40
2018-04-02T02:43:28.434Z,2.40
2018-04-02T02:44:28.567Z,2.50
2018-04-02T02:45:28.337Z,2.40
2018-04-02T02:46:28.317Z,2.10
2018-04-02T02:47:28.306Z,2.00
2018-04-02T02:48:28.303Z,2.00
2018-04-02T02:49:28.429Z,1.50
2018-04-02T02:50:28.230Z,1.90
2018-04-02T02:51:28.178Z,2.30
2018-04-02T02:52:28.218Z,1.70
2018-04-02T02:53:28.130Z,3.00
2018-04-02T02:54:28.220Z,1.50
2018-04-02T02:55:28.095Z,1.90
2018-04-02T02:56:28.687Z,2.50
2018-04-02T02:57:28.088Z,1.50
2018-04-02T02:58:28.017Z,2.50
2018-04-02T02:59:28.035Z,2.10
2018-04-02T03:00:28.096Z,2.40
2018-04-02T03:01:27.940Z,2.30
2018-04-02T03:02:27.909Z,1.50
2018-04-02T03:03:27.892Z,2.30
2018-04-02T03:04:27.843Z,2.40
2018-04-02T03:05:27.989Z,1.60
2018-04-02T03:06:27.813Z,2.00
2018-04-02T03:07:27.832Z,2.60
2018-04-02T03:08:27.768Z,2.80
2018-04-02T03:09:27.775Z,2.40
2018-04-02T03:10:27.799Z,1.70
2018-04-02T03:11:27.683Z,2.20
2018-04-02T03:12:27.668Z,2.20
2018-04-02T03:13:27.660Z,2.10
2018-04-02T03:14:27.623Z,1.50
2018-04-02T03:15:27.666Z,1.30
2018-04-02T03:16:27.648Z,2.20
2018-04-02T03:17:27.531Z,1.90
2018-04-02T03:18:27.494Z,2.30
2018-04-02T03:19:27.476Z,2.60
2018-04-02T03:20:27.997Z,2.20
2018-04-02T03:21:27.543Z,1.70
2018-04-02T03:22:27.368Z,1.70
2018-04-02T03:23:27.442Z,2.20
2018-04-02T03:24:27.343Z,2.70
2018-04-02T03:25:27.342Z,2.00
2018-04-02T03:26:27.313Z,2.20
2018-04-02T03:27:27.435Z,2.60
2018-04-02T03:28:27.235Z,1.60
2018-04-02T03:29:27.208Z,1.50
2018-04-02T03:30:27.219Z,2.00
2018-04-02T03:31:27.266Z,2.00
2018-04-02T03:32:27.415Z,3.30
2018-04-02T03:33:27.137Z,1.70
2018-04-02T03:34:27.086Z,2.50
2018-04-02T03:35:27.090Z,1.90
2018-04-02T03:36:27.086Z,2.20
2018-04-02T03:37:27.110Z,1.90
2018-04-02T03:38:27.204Z,1.80
2018-04-02T03:39:27.020Z,1.90
2018-04-02T03:40:27.057Z,2.50
2018-04-02T03:41:26.890Z,2.40
2018-04-02T03:42:26.898Z,1.90
2018-04-02T03:43:26.949Z,2.20
2018-04-02T03:44:26.882Z,2.20
2018-04-02T03:45:26.813Z,2.40
2018-04-02T03:46:26.783Z,1.80
2018-04-02T03:47:26.752Z,2.80
2018-04-02T03:48:26.869Z,2.20
2018-04-02T03:49:26.756Z,2.90
2018-04-02T03:50:26.690Z,2.30
2018-04-02T03:51:26.640Z,1.70
2018-04-02T03:52:26.640Z,1.80
2018-04-02T03:53:26.700Z,2.40
2018-04-02T03:54:26.599Z,2.60
2018-04-02T03:55:26.540Z,2.90
2018-04-02T03:56:26.571Z,2.60
2018-04-02T03:57:26.515Z,3.10
2018-04-02T03:58:26.494Z,2.70
2018-04-02T03:59:26.662Z,1.90
2018-04-02T04:00:26.571Z,3.00
2018-04-02T04:01:26.403Z,2.20
2018-04-02T04:02:26.393Z,2.00
2018-04-02T04:03:26.356Z,2.30
2018-04-02T04:04:26.390Z,2.40
2018-04-02T04:05:26.432Z,2.10
2018-04-02T04:06:26.252Z,2.10
2018-04-02T04:07:26.258Z,1.60
2018-04-02T04:08:26.220Z,2.80
2018-04-02T04:09:26.253Z,2.30
2018-04-02T04:10:26.239Z,2.60
2018-04-02T04:11:26.234Z,3.40
2018-04-02T04:12:26.145Z,2.00
2018-04-02T04:13:26.069Z,2.00
2018-04-02T04:14:26.103Z,2.50
2018-04-02T04:15:26.047Z,2.40
2018-04-02T04:16:26.150Z,2.30
2018-04-02T04:17:26.127Z,2.20
2018-04-02T04:18:25.997Z,2.20
2018-04-02T04:19:25.939Z,1.90
2018-04-02T04:20:25.946Z,2.90
2018-04-02T04:21:26.161Z,2.60
2018-04-02T04:22:25.898Z,3.10
2018-04-02T04:23:25.844Z,2.40
2018-04-02T04:24:25.783Z,2.40
2018-04-02T04:25:25.924Z,2.10
2018-04-02T04:26:25.865Z,1.70
2018-04-02T04:27:25.727Z,1.80
2018-04-02T04:28:25.728Z,3.10
2018-04-02T04:29:25.710Z,2.20
2018-04-02T04:30:25.634Z,2.20
2018-04-02T04:31:25.724Z,2.50
2018-04-02T04:32:25.624Z,2.50
2018-04-02T04:33:25.639Z,2.30
2018-04-02T04:34:25.523Z,2.80
2018-04-02T04:35:25.523Z,2.80
2018-04-02T04:36:25.600Z,1.90
2018-04-02T04:37:25.462Z,3.10
2018-04-02T04:38:25.415Z,1.60
2018-04-02T04:39:25.396Z,1.80
2018-04-02T04:40:25.439Z,2.70
2018-04-02T04:41:25.431Z,2.60
2018-04-02T04:42:25.420Z,2.40
2018-04-02T04:43:25.331Z,2.80
2018-04-02T04:44:25.267Z,2.00
2018-04-02T04:45:25.253Z,2.00
2018-04-02T04:46:25.207Z,1.70
2018-04-02T04:47:25.188Z,2.50
2018-04-02T04:48:25.275Z,2.70
2018-04-02T04:49:25.354Z,2.90
2018-04-02T04:50:25.117Z,2.80
2018-04-02T04:51:25.078Z,2.40
2018-04-02T04:52:25.103Z,1.90
2018-04-02T04:53:25.138Z,2.40
2018-04-02T04:54:25.025Z,2.20
2018-04-02T04:55:24.980Z,2.60
2018-04-02T04:56:24.968Z,2.30
2018-04-02T04:57:24.937Z,2.40
2018-04-02T04:58:25.031Z,4.10
2018-04-02T04:59:24.939Z,2.60
2018-04-02T05:00:24.864Z,1.90
2018-04-02T05:01:24.827Z,2.20
2018-04-02T05:02:24.843Z,2.80
2018-04-02T05:03:24.878Z,2.90
2018-04-02T05:04:24.759Z,3.60
2018-04-02T05:05:24.727Z,5.10
2018-04-02T05:06:24.683Z,7.50
2018-04-02T05:07:24.662Z,4.80
2018-04-02T05:08:24.783Z,4.40
2018-04-02T05:09:24.621Z,3.00
2018-04-02T05:10:24.609Z,4.10
2018-04-02T05:11:24.571Z,5.60
2018-04-02T05:12:24.604Z,3.10
2018-04-02T05:13:24.610Z,3.50
2018-04-02T05:14:24.474Z,3.50
2018-04-02T05:15:24.456Z,3.10
2018-04-02T05:16:24.453Z,2.90
2018-04-02T05:17:24.412Z,3.50
2018-04-02T05:18:24.414Z,3.30
2018-04-02T05:19:24.472Z,2.70
2018-04-02T05:20:24.326Z,3.10
2018-04-02T05:21:24.329Z,2.50
2018-04-02T05:22:24.285Z,1.90
2018-04-02T05:23:24.248Z,2.80
2018-04-02T05:24:24.328Z,3.00
2018-04-02T05:25:24.309Z,2.50
2018-04-02T05:26:24.191Z,1.50
2018-04-02T05:27:24.174Z,2.40
2018-04-02T05:28:24.154Z,2.60
2018-04-02T05:29:24.096Z,2.20
2018-04-02T05:30:24.187Z,3.10
2018-04-02T05:31:24.076Z,2.40
2018-04-02T05:32:24.017Z,1.50
2018-04-02T05:33:24.020Z,2.80
2018-04-02T05:34:23.971Z,2.10
2018-04-02T05:35:24.062Z,2.10
2018-04-02T05:36:23.926Z,1.80
2018-04-02T05:37:23.960Z,2.20
2018-04-02T05:38:23.878Z,2.70
2018-04-02T05:39:23.861Z,3.00
2018-04-02T05:40:23.946Z,2.40
2018-04-02T05:41:23.773Z,2.70
2018-04-02T05:42:23.768Z,2.70
2018-04-02T05:43:23.808Z,1.90
2018-04-02T05:44:23.704Z,1.80
2018-04-02T05:45:23.789Z,2.40
2018-04-02T05:46:23.653Z,3.20
2018-04-02T05:47:23.613Z,2.40
2018-04-02T05:48:23.601Z,2.00
2018-04-02T05:49:23.613Z,3.00
2018-04-02T05:50:23.650Z,2.10
2018-04-02T05:51:23.532Z,2.70
2018-04-02T05:52:23.506Z,3.40
2018-04-02T05:53:23.482Z,2.10
2018-04-02T05:54:23.439Z,1.70
2018-04-02T05:55:23.407Z,1.90
2018-04-02T05:56:23.513Z,2.20
2018-04-02T05:57:23.347Z,2.50
2018-04-02T05:58:23.332Z,2.70
2018-04-02T05:59:23.322Z,2.70
2018-04-02T06:00:23.287Z,2.30
2018-04-02T06:01:23.258Z,2.60
2018-04-02T06:02:23.343Z,2.70
2018-04-02T06:03:23.288Z,2.40
2018-04-02T06:04:23.195Z,2.50
2018-04-02T06:05:23.186Z,2.80
2018-04-02T06:06:23.124Z,2.40
2018-04-02T06:07:23.196Z,2.50
2018-04-02T06:08:23.103Z,2.20
2018-04-02T06:09:23.108Z,3.70
2018-04-02T06:10:23.018Z,2.50
2018-04-02T06:11:23.003Z,2.60
2018-04-02T06:12:23.057Z,1.80
2018-04-02T06:13:22.974Z,2.30
2018-04-02T06:14:22.921Z,2.60
2018-04-02T06:15:22.898Z,1.90
2018-04-02T06:16:22.895Z,3.00
2018-04-02T06:17:22.932Z,2.20
2018-04-02T06:18:22.812Z,2.20
2018-04-02T06:19:22.780Z,3.60
2018-04-02T06:20:22.796Z,3.00
2018-04-02T06:21:22.766Z,2.10
2018-04-02T06:22:22.856Z,2.20
2018-04-02T06:23:22.670Z,2.20
2018-04-02T06:24:22.676Z,2.00
2018-04-02T06:25:22.657Z,2.50
2018-04-02T06:26:22.621Z,2.30
2018-04-02T06:27:22.614Z,2.20
2018-04-02T06:28:22.651Z,2.40
2018-04-02T06:29:22.549Z,3.10
2018-04-02T06:30:22.482Z,3.80
2018-04-02T06:31:22.464Z,2.90
2018-04-02T06:32:22.431Z,2.90
2018-04-02T06:33:22.396Z,2.60
2018-04-02T06:34:22.483Z,2.50
2018-04-02T06:35:22.354Z,2.40
2018-04-02T06:36:22.316Z,2.10
2018-04-02T06:37:22.320Z,2.40
2018-04-02T06:38:22.288Z,2.30
2018-04-02T06:39:22.271Z,3.10
2018-04-02T06:40:22.335Z,2.00
2018-04-02T06:41:22.178Z,2.10
2018-04-02T06:42:22.165Z,2.20
2018-04-02T06:43:22.145Z,2.40
2018-04-02T06:44:22.154Z,3.70
2018-04-02T06:45:22.226Z,2.10
2018-04-02T06:46:22.051Z,3.00
2018-04-02T06:47:22.062Z,2.70
2018-04-02T06:48:22.070Z,2.60
2018-04-02T06:49:21.978Z,3.20
2018-04-02T06:50:22.051Z,2.40
2018-04-02T06:51:21.937Z,3.10
2018-04-02T06:52:21.904Z,2.90
2018-04-02T06:53:21.926Z,2.80
2018-04-02T06:54:21.850Z,3.20
2018-04-02T06:55:21.926Z,2.90
2018-04-02T06:56:21.782Z,2.50
2018-04-02T06:57:21.754Z,3.10
2018-04-02T06:58:21.729Z,2.50
2018-04-02T06:59:21.699Z,2.40
2018-04-02T07:00:21.811Z,2.30
2018-04-02T07:01:21.652Z,2.40
2018-04-02T07:02:21.700Z,2.80
2018-04-02T07:03:21.729Z,2.20
2018-04-02T07:04:21.582Z,2.50
2018-04-02T07:05:21.634Z,2.50
2018-04-02T07:06:21.689Z,2.60
2018-04-02T07:07:21.517Z,3.10
2018-04-02T07:08:21.488Z,2.50
2018-04-02T07:09:21.426Z,3.20
2018-04-02T07:10:21.412Z,2.90
2018-04-02T07:11:21.375Z,3.70
2018-04-02T07:12:21.468Z,3.00
2018-04-02T07:13:21.343Z,2.60
2018-04-02T07:14:21.339Z,3.10
2018-04-02T07:15:21.276Z,2.80
2018-04-02T07:16:21.267Z,2.90
2018-04-02T07:17:21.278Z,3.20
2018-04-02T07:18:21.293Z,1.90
2018-04-02T07:19:21.186Z,3.60
2018-04-02T07:20:21.154Z,2.70
2018-04-02T07:21:21.126Z,3.00
2018-04-02T07:22:21.088Z,2.10
2018-04-02T07:23:21.170Z,3.50
2018-04-02T07:24:21.055Z,2.70
2018-04-02T07:25:21.000Z,2.70
2018-04-02T07:26:20.990Z,2.80
2018-04-02T07:27:20.954Z,1.90
2018-04-02T07:28:21.053Z,2.60
2018-04-02T07:29:20.941Z,2.80
2018-04-02T07:30:20.876Z,2.50
2018-04-02T07:31:20.831Z,2.40
2018-04-02T07:32:20.832Z,2.40
2018-04-02T07:33:20.882Z,3.00
2018-04-02T07:34:20.778Z,2.30
2018-04-02T07:35:20.742Z,1.90
2018-04-02T07:36:20.729Z,2.90
2018-04-02T07:37:20.711Z,2.70
2018-04-02T07:38:20.743Z,2.60
2018-04-02T07:39:20.776Z,2.80
2018-04-02T07:40:20.649Z,2.70
2018-04-02T07:41:20.592Z,2.50
2018-04-02T07:42:20.550Z,2.70
2018-04-02T07:43:20.521Z,3.30
2018-04-02T07:44:20.633Z,2.70
2018-04-02T07:45:20.484Z,2.90
2018-04-02T07:46:20.459Z,2.50
2018-04-02T07:47:20.459Z,2.70
2018-04-02T07:48:20.408Z,2.50
2018-04-02T07:49:20.346Z,2.50
2018-04-02T07:50:20.446Z,2.80
2018-04-02T07:51:20.306Z,3.00
2018-04-02T07:52:20.269Z,3.00
2018-04-02T07:53:20.249Z,3.20
2018-04-02T07:54:20.296Z,2.90
2018-04-02T07:55:20.315Z,2.30
2018-04-02T07:56:20.184Z,2.40
2018-04-02T07:57:20.173Z,2.40
2018-04-02T07:58:20.134Z,2.60
2018-04-02T07:59:20.166Z,2.20
2018-04-02T08:00:20.250Z,2.40
2018-04-02T08:01:20.063Z,2.60
2018-04-02T08:02:20.056Z,2.40
2018-04-02T08:03:19.990Z,2.40
2018-04-02T08:04:19.961Z,2.70
2018-04-02T08:05:20.071Z,2.30
2018-04-02T08:06:19.945Z,2.40
2018-04-02T08:07:19.895Z,2.20
2018-04-02T08:08:19.852Z,1.90
2018-04-02T08:09:19.833Z,2.50
2018-04-02T08:10:19.854Z,2.60
2018-04-02T08:11:19.978Z,2.90
2018-04-02T08:12:19.759Z,2.30
2018-04-02T08:13:19.732Z,2.20
2018-04-02T08:14:19.698Z,2.20
2018-04-02T08:15:19.691Z,2.80
2018-04-02T08:16:19.693Z,2.60
2018-04-02T08:17:19.712Z,3.00
2018-04-02T08:18:19.574Z,2.60
2018-04-02T08:19:19.582Z,2.30
2018-04-02T08:20:19.651Z,2.70
2018-04-02T08:21:19.527Z,2.60
2018-04-02T08:22:19.475Z,2.70
2018-04-02T08:23:19.651Z,3.50
2018-04-02T08:24:19.405Z,2.10
2018-04-02T08:25:19.392Z,2.40
2018-04-02T08:26:19.350Z,3.10
2018-04-02T08:27:19.355Z,2.60
2018-04-02T08:28:19.366Z,3.10
2018-04-02T08:29:19.491Z,3.00
2018-04-02T08:30:19.258Z,2.40
2018-04-02T08:31:19.264Z,2.40
2018-04-02T08:32:19.194Z,2.90
2018-04-02T08:33:19.185Z,3.00
2018-04-02T08:34:19.156Z,3.10
2018-04-02T08:35:19.318Z,2.30
2018-04-02T08:36:19.116Z,2.30
2018-04-02T08:37:19.094Z,2.70
2018-04-02T08:38:19.034Z,2.50
2018-04-02T08:39:19.033Z,3.20
2018-04-02T08:40:19.171Z,2.40
2018-04-02T08:41:18.959Z,3.00
2018-04-02T08:42:18.958Z,2.00
2018-04-02T08:43:18.930Z,2.00
2018-04-02T08:44:18.876Z,3.50
2018-04-02T08:45:18.882Z,3.20
2018-04-02T08:46:19.036Z,3.50
2018-04-02T08:47:18.788Z,3.50
2018-04-02T08:48:18.742Z,3.10
2018-04-02T08:49:18.724Z,3.00
2018-04-02T08:50:18.720Z,3.40
2018-04-02T08:51:18.773Z,3.20
2018-04-02T08:52:18.846Z,3.40
2018-04-02T08:53:18.614Z,2.90
2018-04-02T08:54:18.584Z,3.30
2018-04-02T08:55:18.596Z,3.80
2018-04-02T08:56:18.524Z,3.00
2018-04-02T08:57:18.710Z,2.10
2018-04-02T08:58:18.491Z,2.60
2018-04-02T08:59:18.457Z,2.80
2018-04-02T09:00:18.431Z,3.20
2018-04-02T09:01:18.439Z,3.20
2018-04-02T09:02:18.374Z,3.70
2018-04-02T09:03:18.951Z,2.40
2018-04-02T09:04:18.359Z,2.10
2018-04-02T09:05:18.304Z,2.20
2018-04-02T09:06:18.264Z,2.00
2018-04-02T09:07:18.269Z,2.30
2018-04-02T09:08:18.208Z,2.60
2018-04-02T09:09:18.385Z,2.60
2018-04-02T09:10:18.171Z,2.80
2018-04-02T09:11:18.165Z,2.20
2018-04-02T09:12:18.153Z,1.80
2018-04-02T09:13:18.098Z,3.20
2018-04-02T09:14:18.260Z,2.50
2018-04-02T09:15:18.042Z,2.40
2018-04-02T09:16:18.015Z,2.40
2018-04-02T09:17:18.002Z,3.00
2018-04-02T09:18:17.983Z,4.10
2018-04-02T09:19:18.018Z,3.10
2018-04-02T09:20:18.070Z,2.80
2018-04-02T09:21:17.868Z,2.40
2018-04-02T09:22:17.827Z,2.10
2018-04-02T09:23:17.797Z,3.00
2018-04-02T09:24:17.775Z,3.10
2018-04-02T09:25:17.788Z,2.80
2018-04-02T09:26:18.174Z,2.40
2018-04-02T09:27:17.680Z,2.80
2018-04-02T09:28:17.680Z,2.20
2018-04-02T09:29:17.749Z,3.00
2018-04-02T09:30:17.599Z,2.90
2018-04-02T09:31:17.790Z,4.00
2018-04-02T09:32:17.544Z,2.70
2018-04-02T09:33:17.554Z,2.50
2018-04-02T09:34:17.503Z,2.40
2018-04-02T09:35:17.476Z,2.70
2018-04-02T09:36:17.426Z,2.80
2018-04-02T09:37:17.655Z,2.40
2018-04-02T09:38:17.432Z,2.70
2018-04-02T09:39:17.345Z,1.90
2018-04-02T09:40:17.317Z,2.50
2018-04-02T09:41:17.334Z,2.30
2018-04-02T09:42:17.277Z,3.20
2018-04-02T09:43:17.456Z,3.30
2018-04-02T09:44:17.228Z,3.00
2018-04-02T09:45:17.205Z,4.10
2018-04-02T09:46:17.176Z,3.40
2018-04-02T09:47:17.142Z,3.60
2018-04-02T09:48:17.329Z,3.30
2018-04-02T09:49:17.105Z,3.00
2018-04-02T09:50:17.054Z,3.20
2018-04-02T09:51:17.035Z,2.60
2018-04-02T09:52:17.024Z,3.00
2018-04-02T09:53:17.056Z,2.50
2018-04-02T09:54:17.173Z,2.70
2018-04-02T09:55:16.926Z,2.50
2018-04-02T09:56:16.903Z,2.10
2018-04-02T09:57:16.893Z,2.90
2018-04-02T09:58:16.820Z,3.30
2018-04-02T09:59:16.909Z,3.10
2018-04-02T10:00:17.000Z,2.50
2018-04-02T10:01:16.765Z,3.10
2018-04-02T10:02:16.712Z,2.90
2018-04-02T10:03:16.699Z,3.50
2018-04-02T10:04:16.677Z,3.00
2018-04-02T10:05:16.835Z,2.90
2018-04-02T10:06:16.648Z,3.10
2018-04-02T10:07:16.594Z,3.40
2018-04-02T10:08:16.587Z,2.70
2018-04-02T10:09:16.540Z,2.50
2018-04-02T10:10:16.800Z,2.60
2018-04-02T10:11:16.474Z,2.80
2018-04-02T10:12:16.458Z,3.20
2018-04-02T10:13:16.421Z,3.50
2018-04-02T10:14:16.400Z,2.50
2018-04-02T10:15:16.415Z,3.30
2018-04-02T10:16:16.530Z,3.20
2018-04-02T10:17:16.330Z,3.50
2018-04-02T10:18:16.274Z,2.30
2018-04-02T10:19:16.261Z,3.50
2018-04-02T10:20:16.268Z,2.80
2018-04-02T10:21:16.242Z,3.40
2018-04-02T10:22:16.383Z,3.40
2018-04-02T10:23:16.125Z,2.60
2018-04-02T10:24:16.163Z,3.60
2018-04-02T10:25:16.120Z,2.50
2018-04-02T10:26:16.120Z,3.90
2018-04-02T10:27:16.100Z,3.20
2018-04-02T10:28:16.204Z,2.50
2018-04-02T10:29:15.995Z,3.20
2018-04-02T10:30:15.973Z,2.40
2018-04-02T10:31:15.908Z,3.70
2018-04-02T10:32:15.916Z,2.80
2018-04-02T10:33:15.915Z,2.90
2018-04-02T10:34:16.028Z,3.10
2018-04-02T10:35:15.797Z,3.20
2018-04-02T10:36:15.797Z,3.40
2018-04-02T10:37:15.786Z,3.00
2018-04-02T10:38:15.727Z,3.00
2018-04-02T10:39:15.907Z,2.10
2018-04-02T10:40:15.769Z,2.40
2018-04-02T10:41:15.652Z,3.00
2018-04-02T10:42:15.658Z,2.00
2018-04-02T10:43:15.649Z,2.40
2018-04-02T10:44:15.772Z,2.50
2018-04-02T10:45:15.601Z,3.70
2018-04-02T10:46:15.541Z,3.00
2018-04-02T10:47:15.490Z,2.40
2018-04-02T10:48:15.457Z,2.90
2018-04-02T10:49:15.418Z,2.90
2018-04-02T10:50:15.642Z,3.40
2018-04-02T10:51:15.364Z,3.30
2018-04-02T10:52:15.340Z,3.80
2018-04-02T10:53:15.328Z,2.60
2018-04-02T10:54:15.316Z,3.20
2018-04-02T10:55:15.275Z,2.70
2018-04-02T10:56:15.426Z,2.70
2018-04-02T10:57:15.211Z,2.30
2018-04-02T10:58:15.175Z,2.60
2018-04-02T10:59:15.233Z,2.90
2018-04-02T11:00:15.179Z,2.00
2018-04-02T11:01:15.145Z,3.90
2018-04-02T11:02:15.276Z,3.20
2018-04-02T11:03:15.017Z,2.90
2018-04-02T11:04:14.997Z,2.80
2018-04-02T11:05:15.014Z,2.70
2018-04-02T11:06:15.008Z,3.10
2018-04-02T11:07:15.086Z,2.90
2018-04-02T11:08:14.887Z,2.50
2018-04-02T11:09:14.881Z,2.80
2018-04-02T11:10:14.866Z,2.60
2018-04-02T11:11:14.853Z,3.10
2018-04-02T11:12:15.025Z,3.50
2018-04-02T11:13:14.765Z,3.70
2018-04-02T11:14:14.737Z,3.10
2018-04-02T11:15:14.747Z,2.60
2018-04-02T11:16:14.657Z,2.60
2018-04-02T11:17:14.832Z,2.80
2018-04-02T11:18:14.621Z,2.70
2018-04-02T11:19:14.590Z,2.60
2018-04-02T11:20:14.577Z,3.50
2018-04-02T11:21:14.586Z,3.20
2018-04-02T11:22:14.668Z,2.70
2018-04-02T11:23:14.525Z,3.20
2018-04-02T11:24:14.442Z,2.20
2018-04-02T11:25:14.442Z,2.80
2018-04-02T11:26:14.409Z,3.20
2018-04-02T11:27:14.400Z,3.10
2018-04-02T11:28:14.534Z,2.80
2018-04-02T11:29:14.330Z,3.30
2018-04-02T11:30:14.302Z,3.30
2018-04-02T11:31:14.270Z,3.10
2018-04-02T11:32:14.215Z,2.90
2018-04-02T11:33:14.190Z,2.60
2018-04-02T11:34:14.479Z,3.20
2018-04-02T11:35:14.158Z,3.10
2018-04-02T11:36:14.105Z,3.10
2018-04-02T11:39:20.525Z,3.80
2018-04-02T11:40:20.340Z,3.60
2018-04-02T11:41:20.326Z,4.10
2018-04-02T11:42:20.235Z,2.30
2018-04-02T11:43:20.242Z,2.90
2018-04-02T11:44:20.213Z,3.10
2018-04-02T11:45:20.304Z,3.40
2018-04-02T11:46:20.143Z,2.90
2018-04-02T11:47:20.207Z,3.00
2018-04-02T11:48:20.124Z,4.00
2018-04-02T11:49:21.454Z,3.20
2018-04-02T11:50:22.853Z,3.30
2018-04-02T11:51:21.546Z,3.10
2018-04-02T11:52:19.993Z,2.60
2018-04-02T11:53:20.058Z,3.60
2018-04-02T11:54:19.964Z,3.80
2018-04-02T11:55:19.916Z,4.20
2018-04-02T11:56:20.223Z,2.90
2018-04-02T11:57:19.845Z,3.50
2018-04-02T11:58:19.844Z,3.30
2018-04-02T11:59:19.820Z,4.40
2018-04-02T12:00:19.748Z,3.30
2018-04-02T12:01:19.922Z,4.50
2018-04-02T12:02:19.730Z,4.10
2018-04-02T12:03:19.687Z,6.20
2018-04-02T12:04:19.689Z,8.30
2018-04-02T12:05:19.602Z,6.80
2018-04-02T12:06:19.778Z,7.70
2018-04-02T12:07:19.702Z,6.10
2018-04-02T12:08:19.512Z,5.80
2018-04-02T12:09:19.579Z,4.30
2018-04-02T12:10:19.508Z,5.50
2018-04-02T12:11:19.434Z,6.30
2018-04-02T12:12:19.597Z,6.10
2018-04-02T12:13:19.391Z,6.40
2018-04-02T12:14:19.396Z,5.50
2018-04-02T12:15:19.406Z,6.20
2018-04-02T12:16:19.375Z,4.60
2018-04-02T12:17:19.392Z,4.40
2018-04-02T12:18:19.461Z,6.70
2018-04-02T12:19:19.233Z,5.60
2018-04-02T12:20:19.202Z,5.70
2018-04-02T12:21:19.250Z,4.70
2018-04-02T12:22:19.149Z,3.30
2018-04-02T12:23:19.327Z,4.50
2018-04-02T12:24:19.097Z,2.90
2018-04-02T12:25:19.274Z,2.90
2018-04-02T12:26:19.115Z,3.20
2018-04-02T12:27:19.017Z,4.10
2018-04-02T12:28:19.254Z,3.00
2018-04-02T12:29:18.965Z,2.10
2018-04-02T12:30:18.957Z,4.90
2018-04-02T12:31:18.956Z,7.10
2018-04-02T12:32:18.917Z,5.00
2018-04-02T12:33:19.107Z,5.40
2018-04-02T12:34:18.826Z,2.80
2018-04-02T12:35:18.808Z,2.10
2018-04-02T12:36:18.778Z,3.20
2018-04-02T12:37:18.756Z,4.00
2018-04-02T12:38:18.927Z,2.80
2018-04-02T12:39:18.719Z,2.90
2018-04-02T12:40:18.674Z,2.20
2018-04-02T12:41:18.648Z,2.00
2018-04-02T12:42:18.709Z,2.30
2018-04-02T12:43:18.794Z,2.30
2018-04-02T12:44:18.630Z,2.30
2018-04-02T12:45:18.529Z,2.50
2018-04-02T12:46:18.512Z,2.70
2018-04-02T12:47:18.729Z,2.20
2018-04-02T12:48:18.974Z,2.10
2018-04-02T12:49:18.515Z,2.70
2018-04-02T12:50:18.631Z,2.30
2018-04-02T12:51:18.449Z,2.60
2018-04-02T12:52:18.541Z,2.10
2018-04-02T12:53:18.345Z,2.60
2018-04-02T12:54:18.486Z,2.40
2018-04-02T12:55:18.389Z,1.80
2018-04-02T12:56:18.433Z,2.30
2018-04-02T12:57:18.386Z,2.20
2018-04-02T12:58:18.317Z,1.80
2018-04-02T12:59:18.401Z,2.30
2018-04-02T13:00:18.173Z,1.60
2018-04-02T13:01:18.138Z,2.00
2018-04-02T13:02:18.251Z,2.20
2018-04-02T13:03:18.152Z,2.20
2018-04-02T13:04:18.109Z,2.40
2018-04-02T13:05:18.077Z,1.80
2018-04-02T13:06:18.209Z,1.50
2018-04-02T13:07:18.076Z,2.60
2018-04-02T13:08:17.999Z,1.40
2018-04-02T13:09:18.051Z,2.00
2018-04-02T13:10:18.085Z,1.90
2018-04-02T13:11:18.010Z,2.40
2018-04-02T13:12:17.893Z,2.20
2018-04-02T13:13:17.904Z,1.60
2018-04-02T13:14:18.197Z,1.70
2018-04-02T13:15:17.791Z,1.80
2018-04-02T13:16:17.780Z,2.00
2018-04-02T13:17:17.769Z,1.70
2018-04-02T13:18:17.744Z,1.60
2018-04-02T13:19:17.926Z,2.40
2018-04-02T13:20:17.690Z,1.90